Cape Point, South Africa
Current Conditions -  °F | °C
As of 8:00 PM on Saturday 25 Oct 2014 (Local Time) from FACT Reporting Station
Few Clouds Few Clouds  
Wind Chill: 66°   Ceiling: Unl
Heat Index: 66°   Visibility: 6mi
Dew Point: 54°   Wind: 16mph
Humidity: 64%   Direction: 120°ESE
Pressure: 30"   Gusts: NA
Location:  34.35°S, 18.5°E
Report Text: FACT 251800Z 12014KT 9999 FEW030 19/12 Q1016 NOSIG
Loading
Personal Weather Stations






























Interactive Weather Map
Tropical Storm Tracking
New forecast layout! Learn more

10-Day Weather Forecast

Advertisements
Track Severe Weather on mobile